createdAt,value
2022-11-05T00:00:10.487Z,9.93
2022-11-05T00:05:32.087Z,7.18
2022-11-05T00:10:36.696Z,6.85
2022-11-05T00:15:57.556Z,7.78
2022-11-05T00:20:59.304Z,9.55
2022-11-05T00:26:03.745Z,6.00
2022-11-05T00:31:14.125Z,5.78
2022-11-05T00:36:15.899Z,6.25
2022-11-05T00:41:17.710Z,7.25
2022-11-05T00:46:19.484Z,7.75
2022-11-05T00:51:21.515Z,5.03
2022-11-05T00:56:23.309Z,9.48
2022-11-05T01:01:25.149Z,6.03
2022-11-05T01:06:26.989Z,4.00
2022-11-05T01:11:34.549Z,5.20
2022-11-05T01:16:37.592Z,6.10
2022-11-05T01:21:39.759Z,6.32
2022-11-05T01:26:41.521Z,5.20
2022-11-05T01:31:43.493Z,8.35
2022-11-05T01:36:45.269Z,6.53
2022-11-05T01:41:47.247Z,6.72
2022-11-05T01:46:49.116Z,5.95
2022-11-05T01:51:51.595Z,5.38
2022-11-05T01:57:03.030Z,4.78
2022-11-05T02:02:07.878Z,5.20
2022-11-05T02:07:10.604Z,5.43
2022-11-05T02:12:14.435Z,5.07
2022-11-05T02:17:40.576Z,3.13
2022-11-05T02:22:51.554Z,4.20
2022-11-05T02:28:21.108Z,2.42
2022-11-05T02:33:58.379Z,2.05
2022-11-05T02:39:19.015Z,2.33
2022-11-05T02:44:45.071Z,2.30
2022-11-05T02:50:04.027Z,2.20
2022-11-05T02:55:34.432Z,3.33
2022-11-05T03:00:39.419Z,2.88
2022-11-05T03:06:09.676Z,4.45
2022-11-05T03:11:17.709Z,1.45
2022-11-05T03:16:37.023Z,4.82
2022-11-05T03:21:42.601Z,3.60
2022-11-05T03:26:59.088Z,3.72
2022-11-05T03:32:03.231Z,3.05
2022-11-05T03:37:06.391Z,3.20
2022-11-05T03:42:12.952Z,1.40
2022-11-05T03:47:20.919Z,1.08
2022-11-05T03:52:28.245Z,1.27
2022-11-05T03:57:34.696Z,3.00
2022-11-05T04:02:38.497Z,4.03
2022-11-05T04:07:58.974Z,1.40
2022-11-05T04:13:19.449Z,2.58
2022-11-05T04:18:21.353Z,1.65
2022-11-05T04:23:41.514Z,2.45
2022-11-05T04:29:07.664Z,1.13
2022-11-05T04:34:09.642Z,2.33
2022-11-05T04:39:11.569Z,2.00
2022-11-05T04:44:13.490Z,4.00
2022-11-05T04:49:15.278Z,3.05
2022-11-05T04:54:17.068Z,2.20
2022-11-05T04:59:18.951Z,2.88
2022-11-05T05:04:20.778Z,10.50
2022-11-05T05:09:22.565Z,5.22
2022-11-05T05:14:24.334Z,2.85
2022-11-05T05:19:26.647Z,4.72
2022-11-05T05:24:28.347Z,3.63
2022-11-05T05:29:30.042Z,5.53
2022-11-05T05:34:31.830Z,10.38
2022-11-05T05:39:34.884Z,4.00
2022-11-05T05:44:36.869Z,11.50
2022-11-05T05:49:38.609Z,7.75
2022-11-05T05:54:42.993Z,5.50
2022-11-05T05:59:44.921Z,5.47
2022-11-05T06:04:46.652Z,5.80
2022-11-05T06:09:48.454Z,6.47
2022-11-05T06:14:50.226Z,4.93
2022-11-05T06:19:51.983Z,5.28
2022-11-05T06:24:53.922Z,6.38
2022-11-05T06:29:56.174Z,9.52
2022-11-05T06:34:57.982Z,6.38
2022-11-05T06:40:00.513Z,10.13
2022-11-05T06:45:02.304Z,6.90
2022-11-05T06:50:04.360Z,5.45
2022-11-05T06:55:06.359Z,5.13
2022-11-05T07:00:09.038Z,7.57
2022-11-05T07:05:11.792Z,6.47
2022-11-05T07:10:16.241Z,4.90
2022-11-05T07:15:18.229Z,4.00
2022-11-05T07:20:20.070Z,4.65
2022-11-05T07:25:21.787Z,4.20
2022-11-05T07:30:24.379Z,7.47
2022-11-05T07:35:26.727Z,7.65
2022-11-05T07:40:29.610Z,5.85
2022-11-05T07:45:31.654Z,4.85
2022-11-05T07:50:35.939Z,4.05
2022-11-05T07:55:38.107Z,5.50
2022-11-05T08:00:40.396Z,4.22
2022-11-05T08:05:44.769Z,8.57
2022-11-05T08:10:47.215Z,6.78
2022-11-05T08:15:49.021Z,7.78
2022-11-05T08:20:51.061Z,8.07
2022-11-05T08:25:53.077Z,9.13
2022-11-05T08:30:56.946Z,10.75
2022-11-05T08:36:03.365Z,12.80
2022-11-05T08:41:05.442Z,15.18
2022-11-05T08:46:07.451Z,10.18
2022-11-05T08:51:09.285Z,13.55
2022-11-05T08:56:11.037Z,15.35
2022-11-05T09:01:12.937Z,17.40
2022-11-05T09:06:14.762Z,12.80
2022-11-05T09:11:18.087Z,15.45
2022-11-05T09:16:23.348Z,13.95
2022-11-05T09:21:25.291Z,15.23
2022-11-05T09:26:27.187Z,15.73
2022-11-05T09:31:29.003Z,18.20
2022-11-05T09:36:30.941Z,17.13
2022-11-05T09:41:37.997Z,17.98
2022-11-05T09:46:53.167Z,15.57
2022-11-05T09:51:56.762Z,19.08
2022-11-05T09:57:02.026Z,14.65
2022-11-05T10:02:21.455Z,16.33
2022-11-05T10:07:26.813Z,17.10
2022-11-05T10:12:43.591Z,15.05
2022-11-05T10:17:49.919Z,12.63
2022-11-05T10:22:58.779Z,14.35
2022-11-05T10:28:00.631Z,19.38
2022-11-05T10:33:06.546Z,15.95
2022-11-05T10:38:13.446Z,13.77
2022-11-05T10:43:36.008Z,12.70
2022-11-05T10:48:45.753Z,11.73
2022-11-05T10:54:01.913Z,13.95
2022-11-05T10:59:12.136Z,15.43
2022-11-05T11:04:20.573Z,15.32
2022-11-05T11:09:31.687Z,13.07
2022-11-05T11:14:35.224Z,11.95
2022-11-05T11:19:37.313Z,13.98
2022-11-05T11:24:48.274Z,13.20
2022-11-05T11:30:02.120Z,14.18
2022-11-05T11:35:06.410Z,14.75
2022-11-05T11:40:22.318Z,13.63
2022-11-05T11:45:36.582Z,15.25
2022-11-05T11:50:43.665Z,14.05
2022-11-05T11:55:57.756Z,17.17
2022-11-05T12:01:06.863Z,14.25
2022-11-05T12:06:29.611Z,13.63
2022-11-05T12:11:54.712Z,13.45
2022-11-05T12:17:22.468Z,13.52
2022-11-05T12:22:49.431Z,13.83
2022-11-05T12:28:32.616Z,17.75
2022-11-05T12:33:57.177Z,19.20
2022-11-05T12:39:04.696Z,21.55
2022-11-05T12:44:31.486Z,13.70
2022-11-05T12:49:33.210Z,16.52
2022-11-05T12:54:47.213Z,15.48
2022-11-05T13:00:15.090Z,15.20
2022-11-05T13:05:24.810Z,15.47
2022-11-05T13:10:35.439Z,18.40
2022-11-05T13:15:58.597Z,12.27
2022-11-05T13:21:05.034Z,16.20
2022-11-05T13:26:20.106Z,13.48
2022-11-05T13:31:40.200Z,14.85
2022-11-05T13:37:10.120Z,16.30
2022-11-05T13:42:42.523Z,16.25
2022-11-05T13:48:18.390Z,15.15
2022-11-05T13:53:23.193Z,18.38
2022-11-05T13:58:46.442Z,16.63
2022-11-05T14:03:50.918Z,23.02
2022-11-05T14:08:58.237Z,17.23
2022-11-05T14:14:03.934Z,17.58
2022-11-05T14:19:17.914Z,16.70
2022-11-05T14:24:37.401Z,16.48
2022-11-05T14:29:47.723Z,17.83
2022-11-05T14:34:55.261Z,17.77
2022-11-05T14:40:01.775Z,20.33
2022-11-05T14:45:10.181Z,24.00
2022-11-05T14:50:21.152Z,18.85
2022-11-05T14:55:31.806Z,17.55
2022-11-05T15:00:36.750Z,19.55
2022-11-05T15:05:50.364Z,19.55
2022-11-05T15:10:56.131Z,20.55
2022-11-05T15:15:59.224Z,21.13
2022-11-05T15:21:03.406Z,22.08
2022-11-05T15:26:23.532Z,23.88
2022-11-05T15:31:41.243Z,24.20
2022-11-05T15:36:57.661Z,23.57
2022-11-05T15:42:04.906Z,26.73
2022-11-05T15:47:07.779Z,24.48
2022-11-05T15:52:15.256Z,22.05
2022-11-05T15:57:26.371Z,22.33
2022-11-05T16:02:30.517Z,20.70
2022-11-05T16:07:33.043Z,20.25
2022-11-05T16:12:36.770Z,21.52
2022-11-05T16:17:57.697Z,21.02
2022-11-05T16:23:05.347Z,20.15
2022-11-05T16:28:24.432Z,27.05
2022-11-05T16:33:43.909Z,18.17
2022-11-05T16:38:45.687Z,20.80
2022-11-05T16:43:56.350Z,22.15
2022-11-05T16:48:58.118Z,18.15
2022-11-05T16:53:59.992Z,21.33
2022-11-05T16:59:02.495Z,24.70
2022-11-05T17:04:04.235Z,21.95
2022-11-05T17:09:06.176Z,21.58
2022-11-05T17:14:14.266Z,20.83
2022-11-05T17:19:16.022Z,24.38
2022-11-05T17:24:17.805Z,21.95
2022-11-05T17:29:19.602Z,21.80
2022-11-05T17:34:21.431Z,22.08
2022-11-05T17:39:28.713Z,24.77
2022-11-05T17:44:33.178Z,27.95
2022-11-05T17:49:34.913Z,24.70
2022-11-05T17:54:36.625Z,28.95
2022-11-05T17:59:38.439Z,29.27
2022-11-05T18:04:40.311Z,26.55
2022-11-05T18:09:42.343Z,26.13
2022-11-05T18:14:44.081Z,30.50
2022-11-05T18:19:45.839Z,28.48
2022-11-05T18:24:47.671Z,31.67
2022-11-05T18:29:49.450Z,30.00
2022-11-05T18:34:51.447Z,33.10
2022-11-05T18:39:54.120Z,28.10
2022-11-05T18:44:56.068Z,39.90
2022-11-05T18:49:58.066Z,35.47
2022-11-05T18:55:00.080Z,32.22
2022-11-05T19:00:02.415Z,32.60
2022-11-05T19:05:28.124Z,33.85
2022-11-05T19:10:26.665Z,34.67
2022-11-05T19:15:28.520Z,40.35
2022-11-05T19:20:35.103Z,40.47
2022-11-05T19:25:39.414Z,38.85
2022-11-05T19:30:41.258Z,44.30
2022-11-05T19:35:43.081Z,40.95
2022-11-05T19:40:44.886Z,54.83
2022-11-05T19:45:47.094Z,43.60
2022-11-05T19:50:48.978Z,48.58
2022-11-05T19:55:50.853Z,48.78
2022-11-05T20:00:56.027Z,53.50
2022-11-05T20:06:09.370Z,53.20
2022-11-05T20:11:11.686Z,50.80
2022-11-05T20:16:26.403Z,49.92
2022-11-05T20:21:28.193Z,41.28
2022-11-05T20:26:30.377Z,45.88
2022-11-05T20:31:32.451Z,47.75
2022-11-05T20:36:34.236Z,47.28
2022-11-05T20:41:36.006Z,42.17
2022-11-05T20:46:37.817Z,48.03
2022-11-05T20:51:39.590Z,53.40
2022-11-05T20:56:42.276Z,50.33
2022-11-05T21:01:44.153Z,51.08
2022-11-05T21:06:45.968Z,56.97
2022-11-05T21:12:06.789Z,50.25
2022-11-05T21:17:11.504Z,51.88
2022-11-05T21:22:16.230Z,51.88
2022-11-05T21:27:18.150Z,51.40
2022-11-05T21:32:19.938Z,49.72
2022-11-05T21:37:21.813Z,50.08
2022-11-05T21:42:23.676Z,51.50
2022-11-05T21:47:28.656Z,44.95
2022-11-05T21:52:48.875Z,43.88
2022-11-05T21:58:09.760Z,51.97
2022-11-05T22:03:11.663Z,65.75
2022-11-05T22:08:13.847Z,45.67
2022-11-05T22:13:15.817Z,47.33
2022-11-05T22:18:17.576Z,45.03
2022-11-05T22:23:19.378Z,43.03
2022-11-05T22:28:21.117Z,40.03
2022-11-05T22:33:22.972Z,41.70
2022-11-05T22:38:24.826Z,37.53
2022-11-05T22:43:26.723Z,45.20
2022-11-05T22:48:28.516Z,40.38
2022-11-05T22:53:30.617Z,38.30
2022-11-05T22:58:32.740Z,44.63
2022-11-05T23:03:34.795Z,34.22
2022-11-05T23:08:55.089Z,39.50
2022-11-05T23:13:56.863Z,38.50
2022-11-05T23:19:17.175Z,40.78
2022-11-05T23:24:18.881Z,35.85
2022-11-05T23:29:22.876Z,41.72
2022-11-05T23:34:24.669Z,35.03
2022-11-05T23:39:26.559Z,39.65
2022-11-05T23:44:47.293Z,35.10
2022-11-05T23:49:49.082Z,31.73
2022-11-05T23:54:50.807Z,34.33
2022-11-05T23:59:52.530Z,28.45
